sensor_id;sensor_type;location;lat;lon;timestamp;P1;durP1;ratioP1;P2;durP2;ratioP2
63087;SDS011;49173;43.164;27.786;2023-05-14T00:00:51;6.35;;;4.13;;
63087;SDS011;49173;43.164;27.786;2023-05-14T00:03:17;8.05;;;4.30;;
63087;SDS011;49173;43.164;27.786;2023-05-14T00:05:42;8.05;;;4.40;;
63087;SDS011;49173;43.164;27.786;2023-05-14T00:08:08;8.25;;;5.13;;
63087;SDS011;49173;43.164;27.786;2023-05-14T00:10:34;6.85;;;4.75;;
63087;SDS011;49173;43.164;27.786;2023-05-14T00:13:00;5.97;;;4.70;;
63087;SDS011;49173;43.164;27.786;2023-05-14T00:15:25;7.78;;;4.57;;
63087;SDS011;49173;43.164;27.786;2023-05-14T00:17:51;6.20;;;4.90;;
63087;SDS011;49173;43.164;27.786;2023-05-14T00:20:17;6.25;;;4.65;;
63087;SDS011;49173;43.164;27.786;2023-05-14T00:22:43;6.60;;;5.05;;
63087;SDS011;49173;43.164;27.786;2023-05-14T00:25:08;7.10;;;4.80;;
63087;SDS011;49173;43.164;27.786;2023-05-14T00:27:34;7.38;;;4.68;;
63087;SDS011;49173;43.164;27.786;2023-05-14T00:30:03;7.10;;;4.50;;
63087;SDS011;49173;43.164;27.786;2023-05-14T00:32:31;6.57;;;5.05;;
63087;SDS011;49173;43.164;27.786;2023-05-14T00:34:57;5.68;;;4.40;;
63087;SDS011;49173;43.164;27.786;2023-05-14T00:37:23;7.93;;;4.53;;
63087;SDS011;49173;43.164;27.786;2023-05-14T00:39:48;8.20;;;5.32;;
63087;SDS011;49173;43.164;27.786;2023-05-14T00:42:14;8.00;;;5.28;;
63087;SDS011;49173;43.164;27.786;2023-05-14T00:44:40;6.97;;;5.20;;
63087;SDS011;49173;43.164;27.786;2023-05-14T00:47:06;5.63;;;5.03;;
63087;SDS011;49173;43.164;27.786;2023-05-14T00:49:32;7.93;;;5.00;;
63087;SDS011;49173;43.164;27.786;2023-05-14T00:51:59;7.47;;;5.78;;
63087;SDS011;49173;43.164;27.786;2023-05-14T00:54:25;10.55;;;5.95;;
63087;SDS011;49173;43.164;27.786;2023-05-14T00:56:52;8.82;;;6.30;;
63087;SDS011;49173;43.164;27.786;2023-05-14T00:59:19;9.35;;;6.40;;
63087;SDS011;49173;43.164;27.786;2023-05-14T01:01:45;8.98;;;6.07;;
63087;SDS011;49173;43.164;27.786;2023-05-14T01:04:11;7.28;;;5.88;;
63087;SDS011;49173;43.164;27.786;2023-05-14T01:09:30;7.35;;;6.28;;
63087;SDS011;49173;43.164;27.786;2023-05-14T01:17:40;9.65;;;6.95;;
63087;SDS011;49173;43.164;27.786;2023-05-14T01:20:09;8.27;;;6.53;;
63087;SDS011;49173;43.164;27.786;2023-05-14T01:22:36;9.57;;;6.68;;
63087;SDS011;49173;43.164;27.786;2023-05-14T01:25:02;9.07;;;7.03;;
63087;SDS011;49173;43.164;27.786;2023-05-14T01:30:29;8.20;;;6.78;;
63087;SDS011;49173;43.164;27.786;2023-05-14T01:32:59;8.35;;;6.10;;
63087;SDS011;49173;43.164;27.786;2023-05-14T01:35:28;7.95;;;6.10;;
63087;SDS011;49173;43.164;27.786;2023-05-14T01:38:02;9.48;;;6.68;;
63087;SDS011;49173;43.164;27.786;2023-05-14T01:40:31;9.40;;;6.05;;
63087;SDS011;49173;43.164;27.786;2023-05-14T01:42:58;7.75;;;5.95;;
63087;SDS011;49173;43.164;27.786;2023-05-14T01:45:25;8.50;;;6.47;;
63087;SDS011;49173;43.164;27.786;2023-05-14T01:47:52;10.27;;;6.50;;
63087;SDS011;49173;43.164;27.786;2023-05-14T01:50:18;7.50;;;6.10;;
63087;SDS011;49173;43.164;27.786;2023-05-14T01:52:44;7.88;;;6.05;;
63087;SDS011;49173;43.164;27.786;2023-05-14T01:55:11;9.85;;;7.20;;
63087;SDS011;49173;43.164;27.786;2023-05-14T01:57:36;12.30;;;6.95;;
63087;SDS011;49173;43.164;27.786;2023-05-14T02:00:03;8.35;;;6.68;;
63087;SDS011;49173;43.164;27.786;2023-05-14T02:02:29;12.23;;;5.90;;
63087;SDS011;49173;43.164;27.786;2023-05-14T02:04:55;8.30;;;5.30;;
63087;SDS011;49173;43.164;27.786;2023-05-14T02:07:21;6.85;;;5.70;;
63087;SDS011;49173;43.164;27.786;2023-05-14T02:09:47;8.50;;;6.43;;
63087;SDS011;49173;43.164;27.786;2023-05-14T02:12:13;11.85;;;8.10;;
63087;SDS011;49173;43.164;27.786;2023-05-14T02:14:39;11.30;;;8.05;;
63087;SDS011;49173;43.164;27.786;2023-05-14T02:17:05;11.70;;;9.32;;
63087;SDS011;49173;43.164;27.786;2023-05-14T02:19:30;13.90;;;9.23;;
63087;SDS011;49173;43.164;27.786;2023-05-14T02:21:57;12.73;;;9.50;;
63087;SDS011;49173;43.164;27.786;2023-05-14T02:24:25;14.52;;;8.75;;
63087;SDS011;49173;43.164;27.786;2023-05-14T02:26:51;14.60;;;10.60;;
63087;SDS011;49173;43.164;27.786;2023-05-14T02:29:17;21.00;;;16.30;;
63087;SDS011;49173;43.164;27.786;2023-05-14T02:31:43;29.13;;;21.25;;
63087;SDS011;49173;43.164;27.786;2023-05-14T02:34:09;29.65;;;21.23;;
63087;SDS011;49173;43.164;27.786;2023-05-14T02:36:35;24.30;;;19.30;;
63087;SDS011;49173;43.164;27.786;2023-05-14T02:39:00;27.73;;;19.58;;
63087;SDS011;49173;43.164;27.786;2023-05-14T02:41:26;27.20;;;20.67;;
63087;SDS011;49173;43.164;27.786;2023-05-14T02:43:52;27.10;;;20.38;;
63087;SDS011;49173;43.164;27.786;2023-05-14T02:46:18;26.60;;;21.02;;
63087;SDS011;49173;43.164;27.786;2023-05-14T02:48:44;31.85;;;22.13;;
63087;SDS011;49173;43.164;27.786;2023-05-14T02:51:10;31.85;;;23.92;;
63087;SDS011;49173;43.164;27.786;2023-05-14T02:53:36;35.20;;;24.02;;
63087;SDS011;49173;43.164;27.786;2023-05-14T02:56:02;30.60;;;23.25;;
63087;SDS011;49173;43.164;27.786;2023-05-14T02:58:28;29.85;;;22.52;;
63087;SDS011;49173;43.164;27.786;2023-05-14T03:00:54;27.25;;;19.02;;
63087;SDS011;49173;43.164;27.786;2023-05-14T03:03:20;28.60;;;19.52;;
63087;SDS011;49173;43.164;27.786;2023-05-14T03:05:46;27.65;;;19.95;;
63087;SDS011;49173;43.164;27.786;2023-05-14T03:08:12;28.10;;;21.08;;
63087;SDS011;49173;43.164;27.786;2023-05-14T03:10:38;47.80;;;36.53;;
63087;SDS011;49173;43.164;27.786;2023-05-14T03:13:03;61.85;;;41.90;;
63087;SDS011;49173;43.164;27.786;2023-05-14T03:15:29;47.67;;;35.97;;
63087;SDS011;49173;43.164;27.786;2023-05-14T03:17:55;40.45;;;29.98;;
63087;SDS011;49173;43.164;27.786;2023-05-14T03:20:25;32.70;;;26.23;;
63087;SDS011;49173;43.164;27.786;2023-05-14T03:22:51;31.33;;;23.48;;
63087;SDS011;49173;43.164;27.786;2023-05-14T03:25:17;23.48;;;18.92;;
63087;SDS011;49173;43.164;27.786;2023-05-14T03:27:43;26.45;;;19.85;;
63087;SDS011;49173;43.164;27.786;2023-05-14T03:30:09;28.50;;;18.77;;
63087;SDS011;49173;43.164;27.786;2023-05-14T03:32:36;24.95;;;19.88;;
63087;SDS011;49173;43.164;27.786;2023-05-14T03:35:02;23.88;;;19.67;;
63087;SDS011;49173;43.164;27.786;2023-05-14T03:37:28;26.45;;;19.85;;
63087;SDS011;49173;43.164;27.786;2023-05-14T03:39:54;25.60;;;17.90;;
63087;SDS011;49173;43.164;27.786;2023-05-14T03:42:20;21.23;;;15.70;;
63087;SDS011;49173;43.164;27.786;2023-05-14T03:44:46;20.33;;;15.43;;
63087;SDS011;49173;43.164;27.786;2023-05-14T03:47:12;20.65;;;15.80;;
63087;SDS011;49173;43.164;27.786;2023-05-14T03:49:37;22.05;;;16.90;;
63087;SDS011;49173;43.164;27.786;2023-05-14T03:52:03;26.45;;;18.08;;
63087;SDS011;49173;43.164;27.786;2023-05-14T03:54:29;24.02;;;18.60;;
63087;SDS011;49173;43.164;27.786;2023-05-14T03:56:55;25.70;;;19.52;;
63087;SDS011;49173;43.164;27.786;2023-05-14T03:59:21;26.48;;;20.75;;
63087;SDS011;49173;43.164;27.786;2023-05-14T04:01:46;27.48;;;20.55;;
63087;SDS011;49173;43.164;27.786;2023-05-14T04:04:12;28.65;;;21.17;;
63087;SDS011;49173;43.164;27.786;2023-05-14T04:06:38;32.47;;;21.60;;
63087;SDS011;49173;43.164;27.786;2023-05-14T04:09:04;29.65;;;22.92;;
63087;SDS011;49173;43.164;27.786;2023-05-14T04:11:29;30.77;;;23.80;;
63087;SDS011;49173;43.164;27.786;2023-05-14T04:13:55;29.15;;;23.13;;
63087;SDS011;49173;43.164;27.786;2023-05-14T04:16:21;28.85;;;24.02;;
63087;SDS011;49173;43.164;27.786;2023-05-14T04:18:46;31.23;;;24.52;;
63087;SDS011;49173;43.164;27.786;2023-05-14T04:21:12;30.92;;;23.15;;
63087;SDS011;49173;43.164;27.786;2023-05-14T04:23:38;28.77;;;23.70;;
63087;SDS011;49173;43.164;27.786;2023-05-14T04:26:04;34.13;;;24.83;;
63087;SDS011;49173;43.164;27.786;2023-05-14T04:28:31;28.98;;;22.40;;
63087;SDS011;49173;43.164;27.786;2023-05-14T04:30:57;33.05;;;21.33;;
63087;SDS011;49173;43.164;27.786;2023-05-14T04:33:23;33.85;;;23.25;;
63087;SDS011;49173;43.164;27.786;2023-05-14T04:35:49;32.90;;;24.70;;
63087;SDS011;49173;43.164;27.786;2023-05-14T04:38:14;30.65;;;24.70;;
63087;SDS011;49173;43.164;27.786;2023-05-14T04:40:40;33.45;;;26.10;;
63087;SDS011;49173;43.164;27.786;2023-05-14T04:43:07;33.33;;;24.70;;
63087;SDS011;49173;43.164;27.786;2023-05-14T04:45:34;38.60;;;27.83;;
63087;SDS011;49173;43.164;27.786;2023-05-14T04:48:00;36.40;;;28.58;;
63087;SDS011;49173;43.164;27.786;2023-05-14T04:50:26;34.90;;;28.35;;
63087;SDS011;49173;43.164;27.786;2023-05-14T04:52:52;36.17;;;29.48;;
63087;SDS011;49173;43.164;27.786;2023-05-14T04:55:20;36.50;;;28.08;;
63087;SDS011;49173;43.164;27.786;2023-05-14T04:57:46;30.90;;;25.67;;
63087;SDS011;49173;43.164;27.786;2023-05-14T05:00:12;28.73;;;23.30;;
63087;SDS011;49173;43.164;27.786;2023-05-14T05:02:38;29.00;;;21.75;;
63087;SDS011;49173;43.164;27.786;2023-05-14T05:05:05;30.23;;;23.15;;
63087;SDS011;49173;43.164;27.786;2023-05-14T05:07:31;29.23;;;23.20;;
63087;SDS011;49173;43.164;27.786;2023-05-14T05:09:57;29.52;;;25.00;;
63087;SDS011;49173;43.164;27.786;2023-05-14T05:12:25;33.53;;;26.17;;
63087;SDS011;49173;43.164;27.786;2023-05-14T05:17:23;31.20;;;24.05;;
63087;SDS011;49173;43.164;27.786;2023-05-14T05:19:57;29.08;;;23.30;;
63087;SDS011;49173;43.164;27.786;2023-05-14T05:22:26;28.63;;;22.88;;
63087;SDS011;49173;43.164;27.786;2023-05-14T05:24:53;30.65;;;20.17;;
63087;SDS011;49173;43.164;27.786;2023-05-14T05:27:19;23.15;;;16.67;;
63087;SDS011;49173;43.164;27.786;2023-05-14T05:29:49;21.92;;;17.23;;
63087;SDS011;49173;43.164;27.786;2023-05-14T05:32:17;16.27;;;11.80;;
63087;SDS011;49173;43.164;27.786;2023-05-14T05:34:44;14.30;;;8.73;;
63087;SDS011;49173;43.164;27.786;2023-05-14T05:37:10;10.85;;;8.10;;
63087;SDS011;49173;43.164;27.786;2023-05-14T05:39:38;12.95;;;8.85;;
63087;SDS011;49173;43.164;27.786;2023-05-14T05:42:06;10.73;;;8.88;;
63087;SDS011;49173;43.164;27.786;2023-05-14T05:44:33;22.60;;;18.27;;
63087;SDS011;49173;43.164;27.786;2023-05-14T05:47:00;20.15;;;15.35;;
63087;SDS011;49173;43.164;27.786;2023-05-14T05:49:27;20.52;;;16.52;;
63087;SDS011;49173;43.164;27.786;2023-05-14T05:51:59;15.10;;;10.32;;
63087;SDS011;49173;43.164;27.786;2023-05-14T05:54:26;6.82;;;4.00;;
63087;SDS011;49173;43.164;27.786;2023-05-14T05:56:53;6.30;;;4.30;;
63087;SDS011;49173;43.164;27.786;2023-05-14T05:59:21;8.15;;;2.97;;
63087;SDS011;49173;43.164;27.786;2023-05-14T06:01:49;4.55;;;2.78;;
63087;SDS011;49173;43.164;27.786;2023-05-14T06:04:16;4.70;;;2.30;;
63087;SDS011;49173;43.164;27.786;2023-05-14T06:06:42;3.72;;;2.30;;
63087;SDS011;49173;43.164;27.786;2023-05-14T06:09:10;4.07;;;2.00;;
63087;SDS011;49173;43.164;27.786;2023-05-14T06:11:37;5.50;;;2.15;;
63087;SDS011;49173;43.164;27.786;2023-05-14T06:14:04;4.00;;;2.20;;
63087;SDS011;49173;43.164;27.786;2023-05-14T06:16:30;4.20;;;1.98;;
63087;SDS011;49173;43.164;27.786;2023-05-14T06:18:59;2.80;;;2.00;;
63087;SDS011;49173;43.164;27.786;2023-05-14T06:21:27;4.78;;;1.63;;
63087;SDS011;49173;43.164;27.786;2023-05-14T06:23:54;3.35;;;1.70;;
63087;SDS011;49173;43.164;27.786;2023-05-14T06:26:22;3.10;;;1.70;;
63087;SDS011;49173;43.164;27.786;2023-05-14T06:28:50;6.05;;;1.70;;
63087;SDS011;49173;43.164;27.786;2023-05-14T06:31:19;3.78;;;1.70;;
63087;SDS011;49173;43.164;27.786;2023-05-14T06:33:46;3.95;;;1.50;;
63087;SDS011;49173;43.164;27.786;2023-05-14T06:36:12;6.88;;;1.80;;
63087;SDS011;49173;43.164;27.786;2023-05-14T06:38:39;2.30;;;1.30;;
63087;SDS011;49173;43.164;27.786;2023-05-14T06:41:05;2.85;;;1.60;;
63087;SDS011;49173;43.164;27.786;2023-05-14T06:43:33;3.28;;;1.70;;
63087;SDS011;49173;43.164;27.786;2023-05-14T06:45:59;2.83;;;1.52;;
63087;SDS011;49173;43.164;27.786;2023-05-14T06:48:30;3.25;;;1.90;;
63087;SDS011;49173;43.164;27.786;2023-05-14T06:50:59;2.78;;;1.30;;
63087;SDS011;49173;43.164;27.786;2023-05-14T06:53:28;6.50;;;1.52;;
63087;SDS011;49173;43.164;27.786;2023-05-14T06:56:00;2.70;;;1.60;;
63087;SDS011;49173;43.164;27.786;2023-05-14T06:58:31;3.63;;;1.77;;
63087;SDS011;49173;43.164;27.786;2023-05-14T07:00:57;5.90;;;1.80;;
63087;SDS011;49173;43.164;27.786;2023-05-14T07:03:24;4.63;;;1.48;;
63087;SDS011;49173;43.164;27.786;2023-05-14T07:05:52;3.70;;;1.52;;
63087;SDS011;49173;43.164;27.786;2023-05-14T07:08:20;9.15;;;1.80;;
63087;SDS011;49173;43.164;27.786;2023-05-14T07:10:48;2.83;;;1.60;;
63087;SDS011;49173;43.164;27.786;2023-05-14T07:13:15;3.83;;;1.70;;
63087;SDS011;49173;43.164;27.786;2023-05-14T07:15:42;5.65;;;1.90;;
63087;SDS011;49173;43.164;27.786;2023-05-14T07:18:08;7.25;;;1.88;;
63087;SDS011;49173;43.164;27.786;2023-05-14T07:20:40;5.25;;;1.80;;
63087;SDS011;49173;43.164;27.786;2023-05-14T07:23:07;5.68;;;1.90;;
63087;SDS011;49173;43.164;27.786;2023-05-14T07:25:36;4.90;;;1.63;;
63087;SDS011;49173;43.164;27.786;2023-05-14T07:28:03;3.80;;;1.98;;
63087;SDS011;49173;43.164;27.786;2023-05-14T07:30:33;5.53;;;1.98;;
63087;SDS011;49173;43.164;27.786;2023-05-14T07:33:00;2.78;;;1.88;;
63087;SDS011;49173;43.164;27.786;2023-05-14T07:35:26;4.97;;;1.90;;
63087;SDS011;49173;43.164;27.786;2023-05-14T07:37:53;4.07;;;1.90;;
63087;SDS011;49173;43.164;27.786;2023-05-14T07:40:20;4.82;;;1.88;;
63087;SDS011;49173;43.164;27.786;2023-05-14T07:42:49;3.40;;;1.67;;
63087;SDS011;49173;43.164;27.786;2023-05-14T07:45:18;4.07;;;1.90;;
63087;SDS011;49173;43.164;27.786;2023-05-14T07:47:47;4.80;;;1.90;;
63087;SDS011;49173;43.164;27.786;2023-05-14T07:50:16;4.63;;;1.80;;
63087;SDS011;49173;43.164;27.786;2023-05-14T07:52:46;3.00;;;1.83;;
63087;SDS011;49173;43.164;27.786;2023-05-14T07:55:12;6.63;;;2.05;;
63087;SDS011;49173;43.164;27.786;2023-05-14T07:57:42;4.28;;;1.98;;
63087;SDS011;49173;43.164;27.786;2023-05-14T08:00:08;4.50;;;1.65;;
63087;SDS011;49173;43.164;27.786;2023-05-14T08:02:40;4.15;;;1.80;;
63087;SDS011;49173;43.164;27.786;2023-05-14T08:07:36;5.13;;;1.90;;
63087;SDS011;49173;43.164;27.786;2023-05-14T08:10:05;4.20;;;2.10;;
63087;SDS011;49173;43.164;27.786;2023-05-14T08:12:32;3.67;;;2.08;;
63087;SDS011;49173;43.164;27.786;2023-05-14T08:15:03;4.82;;;1.95;;
63087;SDS011;49173;43.164;27.786;2023-05-14T08:17:33;5.07;;;2.05;;
63087;SDS011;49173;43.164;27.786;2023-05-14T08:19:59;3.22;;;2.10;;
63087;SDS011;49173;43.164;27.786;2023-05-14T08:22:28;4.60;;;1.85;;
63087;SDS011;49173;43.164;27.786;2023-05-14T08:28:05;6.47;;;2.20;;
63087;SDS011;49173;43.164;27.786;2023-05-14T08:30:47;8.70;;;2.15;;
63087;SDS011;49173;43.164;27.786;2023-05-14T08:33:46;9.32;;;2.53;;
63087;SDS011;49173;43.164;27.786;2023-05-14T08:36:15;4.60;;;2.30;;
63087;SDS011;49173;43.164;27.786;2023-05-14T08:38:42;5.20;;;2.30;;
63087;SDS011;49173;43.164;27.786;2023-05-14T08:41:17;7.40;;;1.88;;
63087;SDS011;49173;43.164;27.786;2023-05-14T08:46:28;4.78;;;2.30;;
63087;SDS011;49173;43.164;27.786;2023-05-14T08:49:13;4.97;;;2.22;;
63087;SDS011;49173;43.164;27.786;2023-05-14T08:52:29;8.38;;;2.47;;
63087;SDS011;49173;43.164;27.786;2023-05-14T08:55:04;3.65;;;2.08;;
63087;SDS011;49173;43.164;27.786;2023-05-14T08:57:34;5.22;;;2.60;;
63087;SDS011;49173;43.164;27.786;2023-05-14T09:00:01;4.53;;;2.22;;
63087;SDS011;49173;43.164;27.786;2023-05-14T09:02:40;3.70;;;2.15;;
63087;SDS011;49173;43.164;27.786;2023-05-14T09:05:09;8.32;;;2.60;;
63087;SDS011;49173;43.164;27.786;2023-05-14T09:07:36;4.07;;;2.53;;
63087;SDS011;49173;43.164;27.786;2023-05-14T09:10:12;3.08;;;2.40;;
63087;SDS011;49173;43.164;27.786;2023-05-14T09:12:48;5.95;;;2.50;;
63087;SDS011;49173;43.164;27.786;2023-05-14T09:15:57;10.50;;;2.58;;
63087;SDS011;49173;43.164;27.786;2023-05-14T09:19:06;4.13;;;2.53;;
63087;SDS011;49173;43.164;27.786;2023-05-14T09:22:55;5.32;;;2.50;;
63087;SDS011;49173;43.164;27.786;2023-05-14T09:30:03;6.57;;;2.00;;
63087;SDS011;49173;43.164;27.786;2023-05-14T09:32:45;6.70;;;2.30;;
63087;SDS011;49173;43.164;27.786;2023-05-14T09:35:26;5.40;;;2.00;;
63087;SDS011;49173;43.164;27.786;2023-05-14T09:38:14;4.68;;;2.05;;
63087;SDS011;49173;43.164;27.786;2023-05-14T09:40:49;6.03;;;1.95;;
63087;SDS011;49173;43.164;27.786;2023-05-14T09:43:40;4.35;;;2.00;;
63087;SDS011;49173;43.164;27.786;2023-05-14T09:46:21;6.65;;;1.90;;
63087;SDS011;49173;43.164;27.786;2023-05-14T09:48:57;5.85;;;1.90;;
63087;SDS011;49173;43.164;27.786;2023-05-14T09:51:58;6.50;;;2.15;;
63087;SDS011;49173;43.164;27.786;2023-05-14T09:54:46;3.70;;;2.30;;
63087;SDS011;49173;43.164;27.786;2023-05-14T10:05:35;3.35;;;1.95;;
63087;SDS011;49173;43.164;27.786;2023-05-14T10:08:42;5.68;;;2.00;;
63087;SDS011;49173;43.164;27.786;2023-05-14T10:11:37;4.50;;;2.10;;
63087;SDS011;49173;43.164;27.786;2023-05-14T10:14:13;8.95;;;2.20;;
63087;SDS011;49173;43.164;27.786;2023-05-14T10:16:52;3.15;;;1.80;;
63087;SDS011;49173;43.164;27.786;2023-05-14T10:19:34;7.35;;;2.30;;
63087;SDS011;49173;43.164;27.786;2023-05-14T10:22:06;3.30;;;1.85;;
63087;SDS011;49173;43.164;27.786;2023-05-14T10:24:43;11.77;;;2.00;;
63087;SDS011;49173;43.164;27.786;2023-05-14T10:27:20;3.42;;;1.90;;
63087;SDS011;49173;43.164;27.786;2023-05-14T10:29:53;8.80;;;2.00;;
63087;SDS011;49173;43.164;27.786;2023-05-14T10:32:33;4.68;;;2.20;;
63087;SDS011;49173;43.164;27.786;2023-05-14T10:35:18;2.65;;;1.60;;
63087;SDS011;49173;43.164;27.786;2023-05-14T10:37:53;3.33;;;2.00;;
63087;SDS011;49173;43.164;27.786;2023-05-14T10:40:23;5.95;;;1.92;;
63087;SDS011;49173;43.164;27.786;2023-05-14T10:42:52;5.30;;;2.05;;
63087;SDS011;49173;43.164;27.786;2023-05-14T10:45:23;8.57;;;1.50;;
63087;SDS011;49173;43.164;27.786;2023-05-14T10:47:51;13.00;;;2.03;;
63087;SDS011;49173;43.164;27.786;2023-05-14T10:50:20;4.70;;;1.58;;
63087;SDS011;49173;43.164;27.786;2023-05-14T10:52:48;7.32;;;1.80;;
63087;SDS011;49173;43.164;27.786;2023-05-14T10:55:15;4.65;;;1.58;;
63087;SDS011;49173;43.164;27.786;2023-05-14T10:57:43;6.00;;;1.88;;
63087;SDS011;49173;43.164;27.786;2023-05-14T11:00:13;3.38;;;1.65;;
63087;SDS011;49173;43.164;27.786;2023-05-14T11:02:40;3.95;;;1.42;;
63087;SDS011;49173;43.164;27.786;2023-05-14T11:05:09;4.28;;;1.50;;
63087;SDS011;49173;43.164;27.786;2023-05-14T11:07:43;5.55;;;1.67;;
63087;SDS011;49173;43.164;27.786;2023-05-14T11:10:12;4.35;;;1.55;;
63087;SDS011;49173;43.164;27.786;2023-05-14T11:12:47;3.10;;;1.23;;
63087;SDS011;49173;43.164;27.786;2023-05-14T11:15:17;4.43;;;1.70;;
63087;SDS011;49173;43.164;27.786;2023-05-14T11:17:48;6.30;;;1.50;;
63087;SDS011;49173;43.164;27.786;2023-05-14T11:20:16;2.70;;;1.48;;
63087;SDS011;49173;43.164;27.786;2023-05-14T11:22:43;3.85;;;1.52;;
63087;SDS011;49173;43.164;27.786;2023-05-14T11:25:15;2.72;;;1.58;;
63087;SDS011;49173;43.164;27.786;2023-05-14T11:27:45;2.63;;;1.50;;
63087;SDS011;49173;43.164;27.786;2023-05-14T11:30:19;14.38;;;2.17;;
63087;SDS011;49173;43.164;27.786;2023-05-14T11:32:47;4.03;;;1.58;;
63087;SDS011;49173;43.164;27.786;2023-05-14T11:35:15;7.65;;;2.00;;
63087;SDS011;49173;43.164;27.786;2023-05-14T11:37:48;6.85;;;2.33;;
63087;SDS011;49173;43.164;27.786;2023-05-14T11:40:19;3.97;;;1.48;;
63087;SDS011;49173;43.164;27.786;2023-05-14T11:42:45;4.45;;;1.30;;
63087;SDS011;49173;43.164;27.786;2023-05-14T11:45:11;3.25;;;1.50;;
63087;SDS011;49173;43.164;27.786;2023-05-14T11:47:45;12.35;;;1.85;;
63087;SDS011;49173;43.164;27.786;2023-05-14T11:50:11;3.20;;;1.77;;
63087;SDS011;49173;43.164;27.786;2023-05-14T11:52:38;3.25;;;1.50;;
63087;SDS011;49173;43.164;27.786;2023-05-14T11:55:10;3.22;;;1.60;;
63087;SDS011;49173;43.164;27.786;2023-05-14T11:57:38;2.80;;;1.55;;
63087;SDS011;49173;43.164;27.786;2023-05-14T12:00:09;2.60;;;1.70;;
63087;SDS011;49173;43.164;27.786;2023-05-14T12:02:41;2.28;;;1.50;;
63087;SDS011;49173;43.164;27.786;2023-05-14T12:05:12;3.78;;;1.88;;
63087;SDS011;49173;43.164;27.786;2023-05-14T12:10:10;4.45;;;1.88;;
63087;SDS011;49173;43.164;27.786;2023-05-14T12:12:38;3.45;;;1.85;;
63087;SDS011;49173;43.164;27.786;2023-05-14T12:15:11;5.10;;;1.83;;
63087;SDS011;49173;43.164;27.786;2023-05-14T12:17:38;3.55;;;1.58;;
63087;SDS011;49173;43.164;27.786;2023-05-14T12:20:08;3.83;;;1.83;;
63087;SDS011;49173;43.164;27.786;2023-05-14T12:22:35;2.80;;;1.70;;
63087;SDS011;49173;43.164;27.786;2023-05-14T12:25:02;4.25;;;1.92;;
63087;SDS011;49173;43.164;27.786;2023-05-14T12:27:31;2.92;;;1.70;;
63087;SDS011;49173;43.164;27.786;2023-05-14T12:29:59;5.25;;;1.70;;
63087;SDS011;49173;43.164;27.786;2023-05-14T12:32:30;3.95;;;1.95;;
63087;SDS011;49173;43.164;27.786;2023-05-14T12:34:56;4.28;;;1.88;;
63087;SDS011;49173;43.164;27.786;2023-05-14T12:37:23;3.50;;;1.73;;
63087;SDS011;49173;43.164;27.786;2023-05-14T12:39:50;4.97;;;1.98;;
63087;SDS011;49173;43.164;27.786;2023-05-14T12:42:19;4.47;;;1.77;;
63087;SDS011;49173;43.164;27.786;2023-05-14T12:44:47;5.18;;;1.95;;
63087;SDS011;49173;43.164;27.786;2023-05-14T12:47:13;4.40;;;2.03;;
63087;SDS011;49173;43.164;27.786;2023-05-14T12:49:39;7.28;;;1.92;;
63087;SDS011;49173;43.164;27.786;2023-05-14T12:52:05;4.70;;;2.13;;
63087;SDS011;49173;43.164;27.786;2023-05-14T12:54:31;5.15;;;1.80;;
63087;SDS011;49173;43.164;27.786;2023-05-14T12:56:59;3.88;;;2.00;;
63087;SDS011;49173;43.164;27.786;2023-05-14T12:59:26;8.07;;;1.80;;
63087;SDS011;49173;43.164;27.786;2023-05-14T13:01:54;4.80;;;1.73;;
63087;SDS011;49173;43.164;27.786;2023-05-14T13:04:21;4.32;;;1.58;;
63087;SDS011;49173;43.164;27.786;2023-05-14T13:06:47;3.95;;;1.77;;
63087;SDS011;49173;43.164;27.786;2023-05-14T13:09:15;2.50;;;1.70;;
63087;SDS011;49173;43.164;27.786;2023-05-14T13:11:41;7.15;;;2.00;;
63087;SDS011;49173;43.164;27.786;2023-05-14T13:14:09;4.25;;;1.67;;
63087;SDS011;49173;43.164;27.786;2023-05-14T13:16:35;3.55;;;1.63;;
63087;SDS011;49173;43.164;27.786;2023-05-14T13:19:03;3.63;;;1.70;;
63087;SDS011;49173;43.164;27.786;2023-05-14T13:21:29;3.60;;;1.55;;
63087;SDS011;49173;43.164;27.786;2023-05-14T13:23:57;6.03;;;1.80;;
63087;SDS011;49173;43.164;27.786;2023-05-14T13:26:25;2.13;;;1.40;;
63087;SDS011;49173;43.164;27.786;2023-05-14T13:28:52;4.70;;;1.65;;
63087;SDS011;49173;43.164;27.786;2023-05-14T13:31:20;2.97;;;1.50;;
63087;SDS011;49173;43.164;27.786;2023-05-14T13:33:47;5.50;;;1.60;;
63087;SDS011;49173;43.164;27.786;2023-05-14T13:36:13;3.33;;;1.60;;
63087;SDS011;49173;43.164;27.786;2023-05-14T13:38:43;6.30;;;2.13;;
63087;SDS011;49173;43.164;27.786;2023-05-14T13:41:11;3.65;;;1.92;;
63087;SDS011;49173;43.164;27.786;2023-05-14T13:43:37;3.70;;;1.50;;
63087;SDS011;49173;43.164;27.786;2023-05-14T13:46:04;3.40;;;1.70;;
63087;SDS011;49173;43.164;27.786;2023-05-14T13:48:32;3.85;;;1.60;;
63087;SDS011;49173;43.164;27.786;2023-05-14T13:51:02;2.90;;;1.60;;
63087;SDS011;49173;43.164;27.786;2023-05-14T13:53:28;3.05;;;1.80;;
63087;SDS011;49173;43.164;27.786;2023-05-14T13:55:56;7.30;;;1.88;;
63087;SDS011;49173;43.164;27.786;2023-05-14T13:58:24;6.65;;;1.90;;
63087;SDS011;49173;43.164;27.786;2023-05-14T14:00:50;4.43;;;1.55;;
63087;SDS011;49173;43.164;27.786;2023-05-14T14:03:18;4.53;;;1.67;;
63087;SDS011;49173;43.164;27.786;2023-05-14T14:05:44;4.25;;;1.80;;
63087;SDS011;49173;43.164;27.786;2023-05-14T14:08:11;8.82;;;1.75;;
63087;SDS011;49173;43.164;27.786;2023-05-14T14:10:39;3.75;;;1.70;;
63087;SDS011;49173;43.164;27.786;2023-05-14T14:13:06;4.35;;;1.80;;
63087;SDS011;49173;43.164;27.786;2023-05-14T14:15:38;3.33;;;1.80;;
63087;SDS011;49173;43.164;27.786;2023-05-14T14:18:05;6.93;;;1.98;;
63087;SDS011;49173;43.164;27.786;2023-05-14T14:23:00;6.53;;;2.10;;
63087;SDS011;49173;43.164;27.786;2023-05-14T14:25:29;4.43;;;1.70;;
63087;SDS011;49173;43.164;27.786;2023-05-14T14:27:56;4.20;;;2.10;;
63087;SDS011;49173;43.164;27.786;2023-05-14T14:30:23;4.88;;;1.95;;
63087;SDS011;49173;43.164;27.786;2023-05-14T14:32:51;5.18;;;1.90;;
63087;SDS011;49173;43.164;27.786;2023-05-14T14:35:18;6.78;;;2.20;;
63087;SDS011;49173;43.164;27.786;2023-05-14T14:37:45;4.35;;;1.88;;
63087;SDS011;49173;43.164;27.786;2023-05-14T14:40:16;2.72;;;1.80;;
63087;SDS011;49173;43.164;27.786;2023-05-14T14:42:43;7.72;;;2.10;;
63087;SDS011;49173;43.164;27.786;2023-05-14T14:45:11;4.07;;;1.90;;
63087;SDS011;49173;43.164;27.786;2023-05-14T14:47:41;4.38;;;1.75;;
63087;SDS011;49173;43.164;27.786;2023-05-14T14:50:11;3.58;;;1.70;;
63087;SDS011;49173;43.164;27.786;2023-05-14T14:52:40;4.82;;;1.92;;
63087;SDS011;49173;43.164;27.786;2023-05-14T14:55:12;4.28;;;1.60;;
63087;SDS011;49173;43.164;27.786;2023-05-14T14:57:40;3.08;;;1.83;;
63087;SDS011;49173;43.164;27.786;2023-05-14T15:00:07;5.00;;;2.03;;
63087;SDS011;49173;43.164;27.786;2023-05-14T15:02:36;3.63;;;2.10;;
63087;SDS011;49173;43.164;27.786;2023-05-14T15:05:06;12.48;;;1.90;;
63087;SDS011;49173;43.164;27.786;2023-05-14T15:07:33;5.38;;;1.73;;
63087;SDS011;49173;43.164;27.786;2023-05-14T15:10:02;6.68;;;1.85;;
63087;SDS011;49173;43.164;27.786;2023-05-14T15:12:31;3.85;;;1.88;;
63087;SDS011;49173;43.164;27.786;2023-05-14T15:14:57;5.03;;;2.03;;
63087;SDS011;49173;43.164;27.786;2023-05-14T15:17:24;3.80;;;1.80;;
63087;SDS011;49173;43.164;27.786;2023-05-14T15:19:51;5.72;;;2.05;;